sensor_id;sensor_type;location;lat;lon;timestamp;pressure;altitude;pressure_sealevel;temperature;humidity
6218;BME280;3142;48.206;11.550;2022-08-21T00:02:03;95847.69;;;18.94;84.77
6218;BME280;3142;48.206;11.550;2022-08-21T00:04:30;95845.59;;;18.97;85.00
6218;BME280;3142;48.206;11.550;2022-08-21T00:06:57;95849.59;;;18.99;85.00
6218;BME280;3142;48.206;11.550;2022-08-21T00:09:23;95854.31;;;18.92;84.83
6218;BME280;3142;48.206;11.550;2022-08-21T00:11:50;95851.41;;;18.93;85.22
6218;BME280;3142;48.206;11.550;2022-08-21T00:14:18;95845.06;;;18.94;85.27
6218;BME280;3142;48.206;11.550;2022-08-21T00:16:44;95851.69;;;18.97;85.11
6218;BME280;3142;48.206;11.550;2022-08-21T00:19:11;95850.66;;;18.98;84.92
6218;BME280;3142;48.206;11.550;2022-08-21T00:21:37;95852.00;;;19.01;84.80
6218;BME280;3142;48.206;11.550;2022-08-21T00:24:04;95857.81;;;18.98;84.71
6218;BME280;3142;48.206;11.550;2022-08-21T00:26:31;95853.31;;;18.98;84.22
6218;BME280;3142;48.206;11.550;2022-08-21T00:28:58;95858.59;;;18.98;84.12
6218;BME280;3142;48.206;11.550;2022-08-21T00:31:25;95849.59;;;18.99;84.61
6218;BME280;3142;48.206;11.550;2022-08-21T00:33:52;95843.50;;;18.99;83.70
6218;BME280;3142;48.206;11.550;2022-08-21T00:36:18;95846.91;;;18.94;83.84
6218;BME280;3142;48.206;11.550;2022-08-21T00:38:45;95843.44;;;18.93;83.64
6218;BME280;3142;48.206;11.550;2022-08-21T00:41:11;95845.78;;;18.90;83.88
6218;BME280;3142;48.206;11.550;2022-08-21T00:43:39;95834.38;;;18.89;83.85
6218;BME280;3142;48.206;11.550;2022-08-21T00:46:06;95844.97;;;18.89;84.15
6218;BME280;3142;48.206;11.550;2022-08-21T00:48:35;95837.28;;;18.88;83.70
6218;BME280;3142;48.206;11.550;2022-08-21T00:51:05;95848.69;;;18.88;83.76
6218;BME280;3142;48.206;11.550;2022-08-21T00:53:35;95841.78;;;18.87;83.31
6218;BME280;3142;48.206;11.550;2022-08-21T00:56:03;95841.78;;;18.87;83.31
6218;BME280;3142;48.206;11.550;2022-08-21T00:58:31;95838.56;;;18.85;83.55
6218;BME280;3142;48.206;11.550;2022-08-21T01:00:59;95845.97;;;18.83;83.45
6218;BME280;3142;48.206;11.550;2022-08-21T01:03:27;95841.19;;;18.80;83.45
6218;BME280;3142;48.206;11.550;2022-08-21T01:05:55;95833.16;;;18.75;83.21
6218;BME280;3142;48.206;11.550;2022-08-21T01:08:22;95832.84;;;18.72;83.34
6218;BME280;3142;48.206;11.550;2022-08-21T01:10:53;95841.34;;;18.74;83.81
6218;BME280;3142;48.206;11.550;2022-08-21T01:13:21;95833.09;;;18.70;83.49
6218;BME280;3142;48.206;11.550;2022-08-21T01:15:50;95826.19;;;18.69;83.22
6218;BME280;3142;48.206;11.550;2022-08-21T01:18:19;95824.84;;;18.67;83.77
6218;BME280;3142;48.206;11.550;2022-08-21T01:21:00;95823.25;;;18.66;83.81
6218;BME280;3142;48.206;11.550;2022-08-21T01:23:26;95824.84;;;18.67;83.50
6218;BME280;3142;48.206;11.550;2022-08-21T01:25:53;95823.25;;;18.66;83.22
6218;BME280;3142;48.206;11.550;2022-08-21T01:28:21;95819.00;;;18.64;83.32
6218;BME280;3142;48.206;11.550;2022-08-21T01:30:50;95823.13;;;18.60;83.08
6218;BME280;3142;48.206;11.550;2022-08-21T01:33:18;95826.78;;;18.54;82.97
6218;BME280;3142;48.206;11.550;2022-08-21T01:35:45;95818.59;;;18.56;83.34
6218;BME280;3142;48.206;11.550;2022-08-21T01:38:13;95819.09;;;18.53;83.49
6218;BME280;3142;48.206;11.550;2022-08-21T01:40:40;95822.78;;;18.52;82.83
6218;BME280;3142;48.206;11.550;2022-08-21T01:43:06;95818.53;;;18.51;83.17
6218;BME280;3142;48.206;11.550;2022-08-21T01:45:33;95825.44;;;18.52;82.96
6218;BME280;3142;48.206;11.550;2022-08-21T01:47:59;95821.41;;;18.49;83.12
6218;BME280;3142;48.206;11.550;2022-08-21T01:50:26;95821.84;;;18.41;83.05
6218;BME280;3142;48.206;11.550;2022-08-21T01:52:52;95827.66;;;18.38;83.39
6218;BME280;3142;48.206;11.550;2022-08-21T01:55:22;95824.75;;;18.40;83.40
6218;BME280;3142;48.206;11.550;2022-08-21T01:57:48;95815.19;;;18.39;83.18
6218;BME280;3142;48.206;11.550;2022-08-21T02:00:18;95821.28;;;18.39;83.30
6218;BME280;3142;48.206;11.550;2022-08-21T02:02:47;95812.22;;;18.35;82.97
6218;BME280;3142;48.206;11.550;2022-08-21T02:05:14;95806.38;;;18.33;83.00
6218;BME280;3142;48.206;11.550;2022-08-21T02:07:45;95805.81;;;18.31;83.26
6218;BME280;3142;48.206;11.550;2022-08-21T02:10:16;95799.47;;;18.32;82.93
6218;BME280;3142;48.206;11.550;2022-08-21T02:12:44;95796.56;;;18.33;83.14
6218;BME280;3142;48.206;11.550;2022-08-21T02:15:10;95812.47;;;18.33;82.47
6218;BME280;3142;48.206;11.550;2022-08-21T02:17:39;95800.75;;;18.29;82.52
6218;BME280;3142;48.206;11.550;2022-08-21T02:20:07;95797.06;;;18.30;82.18
6218;BME280;3142;48.206;11.550;2022-08-21T02:22:34;95800.22;;;18.27;82.62
6218;BME280;3142;48.206;11.550;2022-08-21T02:25:00;95803.09;;;18.26;82.36
6218;BME280;3142;48.206;11.550;2022-08-21T02:27:27;95801.25;;;18.26;82.59
6218;BME280;3142;48.206;11.550;2022-08-21T02:29:56;95805.50;;;18.27;82.20
6218;BME280;3142;48.206;11.550;2022-08-21T02:32:24;95806.56;;;18.26;82.73
6218;BME280;3142;48.206;11.550;2022-08-21T02:34:50;95804.72;;;18.27;81.93
6218;BME280;3142;48.206;11.550;2022-08-21T02:37:17;95805.75;;;18.26;82.03
6218;BME280;3142;48.206;11.550;2022-08-21T02:39:43;95799.13;;;18.23;81.71
6218;BME280;3142;48.206;11.550;2022-08-21T02:42:10;95801.75;;;18.23;81.91
6218;BME280;3142;48.206;11.550;2022-08-21T02:44:36;95801.97;;;18.22;81.91
6218;BME280;3142;48.206;11.550;2022-08-21T02:47:04;95803.28;;;18.19;81.99
6218;BME280;3142;48.206;11.550;2022-08-21T02:49:31;95800.63;;;18.19;81.98
6218;BME280;3142;48.206;11.550;2022-08-21T02:51:57;95797.19;;;18.19;81.78
6218;BME280;3142;48.206;11.550;2022-08-21T02:54:24;95797.13;;;18.14;81.85
6218;BME280;3142;48.206;11.550;2022-08-21T02:56:50;95793.13;;;18.11;82.63
6218;BME280;3142;48.206;11.550;2022-08-21T02:59:17;95799.22;;;18.12;81.51
6218;BME280;3142;48.206;11.550;2022-08-21T03:01:44;95794.72;;;18.12;82.11
6218;BME280;3142;48.206;11.550;2022-08-21T03:04:11;95797.13;;;18.14;82.24
6218;BME280;3142;48.206;11.550;2022-08-21T03:06:38;95800.03;;;18.12;82.49
6218;BME280;3142;48.206;11.550;2022-08-21T03:09:04;95796.81;;;18.10;82.17
6218;BME280;3142;48.206;11.550;2022-08-21T03:11:31;95799.94;;;18.07;81.75
6218;BME280;3142;48.206;11.550;2022-08-21T03:13:57;95795.69;;;18.06;81.75
6218;BME280;3142;48.206;11.550;2022-08-21T03:16:24;95800.97;;;18.06;81.82
6218;BME280;3142;48.206;11.550;2022-08-21T03:18:50;95807.06;;;18.06;81.99
6218;BME280;3142;48.206;11.550;2022-08-21T03:21:18;95807.63;;;18.09;82.35
6218;BME280;3142;48.206;11.550;2022-08-21T03:23:45;95801.78;;;18.06;82.12
6218;BME280;3142;48.206;11.550;2022-08-21T03:26:11;95802.03;;;18.05;82.48
6218;BME280;3142;48.206;11.550;2022-08-21T03:28:38;95804.44;;;18.06;82.20
6218;BME280;3142;48.206;11.550;2022-08-21T03:31:05;95799.94;;;18.07;81.79
6218;BME280;3142;48.206;11.550;2022-08-21T03:33:31;95797.28;;;18.07;81.74
6218;BME280;3142;48.206;11.550;2022-08-21T03:36:02;95794.63;;;18.07;82.39
6218;BME280;3142;48.206;11.550;2022-08-21T03:38:32;95803.38;;;18.08;81.87
6218;BME280;3142;48.206;11.550;2022-08-21T03:41:00;95799.63;;;18.03;81.81
6218;BME280;3142;48.206;11.550;2022-08-21T03:43:27;95805.66;;;17.99;81.83
6218;BME280;3142;48.206;11.550;2022-08-21T03:45:54;95811.44;;;17.96;82.56
6218;BME280;3142;48.206;11.550;2022-08-21T03:48:20;95801.88;;;17.95;82.55
6218;BME280;3142;48.206;11.550;2022-08-21T03:50:47;95805.31;;;17.95;82.04
6218;BME280;3142;48.206;11.550;2022-08-21T03:53:16;95807.75;;;17.97;82.11
6218;BME280;3142;48.206;11.550;2022-08-21T03:55:44;95808.81;;;17.96;82.06
6218;BME280;3142;48.206;11.550;2022-08-21T03:58:11;95810.88;;;17.94;82.34
6218;BME280;3142;48.206;11.550;2022-08-21T04:00:38;95810.88;;;17.94;82.02
6218;BME280;3142;48.206;11.550;2022-08-21T04:03:04;95810.88;;;17.94;82.09
6218;BME280;3142;48.206;11.550;2022-08-21T04:05:31;95812.16;;;17.91;82.34
6218;BME280;3142;48.206;11.550;2022-08-21T04:07:59;95808.94;;;17.89;82.29
6218;BME280;3142;48.206;11.550;2022-08-21T04:10:28;95807.34;;;17.88;81.78
6218;BME280;3142;48.206;11.550;2022-08-21T04:12:57;95807.91;;;17.90;82.49
6218;BME280;3142;48.206;11.550;2022-08-21T04:15:25;95808.41;;;17.87;81.97
6218;BME280;3142;48.206;11.550;2022-08-21T04:17:52;95816.59;;;17.86;81.86
6218;BME280;3142;48.206;11.550;2022-08-21T04:20:19;95818.19;;;17.87;82.17
6218;BME280;3142;48.206;11.550;2022-08-21T04:22:47;95816.09;;;17.89;82.32
6218;BME280;3142;48.206;11.550;2022-08-21T04:25:15;95820.34;;;17.90;81.93
6218;BME280;3142;48.206;11.550;2022-08-21T04:27:41;95826.19;;;17.92;82.22
6218;BME280;3142;48.206;11.550;2022-08-21T04:30:13;95832.84;;;17.94;82.15
6218;BME280;3142;48.206;11.550;2022-08-21T04:32:42;95833.66;;;17.95;81.96
6218;BME280;3142;48.206;11.550;2022-08-21T04:35:10;95830.44;;;17.93;81.58
6218;BME280;3142;48.206;11.550;2022-08-21T04:37:37;95829.88;;;17.91;81.61
6218;BME280;3142;48.206;11.550;2022-08-21T04:40:05;95837.03;;;17.90;81.43
6218;BME280;3142;48.206;11.550;2022-08-21T04:42:31;95842.31;;;17.90;81.96
6218;BME280;3142;48.206;11.550;2022-08-21T04:44:58;95844.41;;;17.88;81.45
6218;BME280;3142;48.206;11.550;2022-08-21T04:47:26;95846.50;;;17.86;81.91
6218;BME280;3142;48.206;11.550;2022-08-21T04:49:53;95844.91;;;17.85;81.56
6218;BME280;3142;48.206;11.550;2022-08-21T04:52:21;95843.84;;;17.86;82.33
6218;BME280;3142;48.206;11.550;2022-08-21T04:54:49;95844.41;;;17.88;81.72
6218;BME280;3142;48.206;11.550;2022-08-21T04:57:17;95846.00;;;17.89;81.91
6218;BME280;3142;48.206;11.550;2022-08-21T04:59:47;95849.47;;;17.90;81.42
6218;BME280;3142;48.206;11.550;2022-08-21T05:02:14;95848.66;;;17.89;81.63
6218;BME280;3142;48.206;11.550;2022-08-21T05:04:45;95842.31;;;17.90;81.62
6218;BME280;3142;48.206;11.550;2022-08-21T05:07:17;95851.31;;;17.89;81.09
6218;BME280;3142;48.206;11.550;2022-08-21T05:09:45;95844.97;;;17.90;81.07
6218;BME280;3142;48.206;11.550;2022-08-21T05:12:12;95846.81;;;17.90;80.95
6218;BME280;3142;48.206;11.550;2022-08-21T05:14:38;95846.00;;;17.89;81.35
6218;BME280;3142;48.206;11.550;2022-08-21T05:17:05;95850.44;;;17.84;81.26
6218;BME280;3142;48.206;11.550;2022-08-21T05:19:31;95843.31;;;17.84;81.62
6218;BME280;3142;48.206;11.550;2022-08-21T05:21:59;95845.16;;;17.84;81.57
6218;BME280;3142;48.206;11.550;2022-08-21T05:24:26;95850.75;;;17.87;81.56
6218;BME280;3142;48.206;11.550;2022-08-21T05:26:52;95851.88;;;17.91;82.25
6218;BME280;3142;48.206;11.550;2022-08-21T05:29:19;95847.13;;;17.93;81.67
6218;BME280;3142;48.206;11.550;2022-08-21T05:31:46;95858.84;;;17.97;81.68
6218;BME280;3142;48.206;11.550;2022-08-21T05:34:13;95862.38;;;18.03;81.47
6218;BME280;3142;48.206;11.550;2022-08-21T05:36:40;95858.69;;;18.04;81.94
6218;BME280;3142;48.206;11.550;2022-08-21T05:39:08;95865.31;;;18.06;82.24
6218;BME280;3142;48.206;11.550;2022-08-21T05:41:35;95865.31;;;18.06;82.14
6218;BME280;3142;48.206;11.550;2022-08-21T05:44:01;95869.81;;;18.06;81.61
6218;BME280;3142;48.206;11.550;2022-08-21T05:46:28;95868.53;;;18.09;82.13
6218;BME280;3142;48.206;11.550;2022-08-21T05:48:54;95872.06;;;18.14;82.30
6218;BME280;3142;48.206;11.550;2022-08-21T05:51:21;95871.59;;;18.17;82.21
6218;BME280;3142;48.206;11.550;2022-08-21T05:53:47;95873.97;;;18.19;82.48
6218;BME280;3142;48.206;11.550;2022-08-21T05:56:15;95878.00;;;18.21;81.74
6218;BME280;3142;48.206;11.550;2022-08-21T05:58:42;95871.66;;;18.22;81.83
6218;BME280;3142;48.206;11.550;2022-08-21T06:01:09;95872.47;;;18.23;81.68
6218;BME280;3142;48.206;11.550;2022-08-21T06:03:38;95869.00;;;18.22;81.95
6218;BME280;3142;48.206;11.550;2022-08-21T06:06:05;95867.19;;;18.23;81.81
6218;BME280;3142;48.206;11.550;2022-08-21T06:08:32;95867.47;;;18.26;82.31
6218;BME280;3142;48.206;11.550;2022-08-21T06:11:01;95873.09;;;18.30;81.89
6218;BME280;3142;48.206;11.550;2022-08-21T06:13:29;95867.31;;;18.33;81.90
6218;BME280;3142;48.206;11.550;2022-08-21T06:16:07;95873.72;;;18.37;81.86
6218;BME280;3142;48.206;11.550;2022-08-21T06:18:35;95872.44;;;18.40;82.18
6218;BME280;3142;48.206;11.550;2022-08-21T06:21:02;95871.13;;;18.42;81.96
6218;BME280;3142;48.206;11.550;2022-08-21T06:23:28;95869.84;;;18.45;81.84
6218;BME280;3142;48.206;11.550;2022-08-21T06:25:55;95865.44;;;18.50;81.24
6218;BME280;3142;48.206;11.550;2022-08-21T06:28:22;95871.03;;;18.54;81.03
6218;BME280;3142;48.206;11.550;2022-08-21T06:30:50;95870.53;;;18.57;81.59
6218;BME280;3142;48.206;11.550;2022-08-21T06:33:16;95875.84;;;18.57;80.59
6218;BME280;3142;48.206;11.550;2022-08-21T06:35:43;95875.84;;;18.57;80.38
6218;BME280;3142;48.206;11.550;2022-08-21T06:38:10;95873.50;;;18.60;80.84
6218;BME280;3142;48.206;11.550;2022-08-21T06:40:36;95873.59;;;18.66;80.40
6218;BME280;3142;48.206;11.550;2022-08-21T06:43:08;95870.72;;;18.67;79.86
6218;BME280;3142;48.206;11.550;2022-08-21T06:45:35;95867.81;;;18.69;78.92
6218;BME280;3142;48.206;11.550;2022-08-21T06:48:03;95866.25;;;18.73;78.73
6218;BME280;3142;48.206;11.550;2022-08-21T06:50:30;95870.75;;;18.72;78.13
6218;BME280;3142;48.206;11.550;2022-08-21T06:53:01;95864.97;;;18.75;77.78
6218;BME280;3142;48.206;11.550;2022-08-21T06:55:28;95869.00;;;18.78;77.85
6218;BME280;3142;48.206;11.550;2022-08-21T06:57:54;95857.63;;;18.82;77.90
6218;BME280;3142;48.206;11.550;2022-08-21T07:00:21;95864.03;;;18.86;77.71
6218;BME280;3142;48.206;11.550;2022-08-21T07:02:47;95864.91;;;18.92;76.37
6218;BME280;3142;48.206;11.550;2022-08-21T07:05:15;95864.28;;;19.07;76.24
6218;BME280;3142;48.206;11.550;2022-08-21T07:07:42;95863.16;;;19.30;75.32
6218;BME280;3142;48.206;11.550;2022-08-21T07:10:08;95863.19;;;19.57;75.38
6218;BME280;3142;48.206;11.550;2022-08-21T07:12:35;95867.47;;;19.90;73.80
6218;BME280;3142;48.206;11.550;2022-08-21T07:15:01;95861.06;;;20.28;72.09
6218;BME280;3142;48.206;11.550;2022-08-21T07:17:28;95858.69;;;20.74;70.78
6218;BME280;3142;48.206;11.550;2022-08-21T07:19:54;95859.38;;;21.11;68.78
6218;BME280;3142;48.206;11.550;2022-08-21T07:22:23;95856.53;;;21.38;66.63
6218;BME280;3142;48.206;11.550;2022-08-21T07:24:50;95857.06;;;21.61;65.60
6218;BME280;3142;48.206;11.550;2022-08-21T07:27:16;95857.59;;;21.78;64.39
6218;BME280;3142;48.206;11.550;2022-08-21T07:29:43;95848.81;;;22.03;63.32
6218;BME280;3142;48.206;11.550;2022-08-21T07:32:09;95849.34;;;22.25;62.98
6218;BME280;3142;48.206;11.550;2022-08-21T07:34:36;95843.69;;;22.42;62.40
6218;BME280;3142;48.206;11.550;2022-08-21T07:37:02;95851.63;;;22.67;61.73
6218;BME280;3142;48.206;11.550;2022-08-21T07:39:30;95851.03;;;22.81;60.79
6218;BME280;3142;48.206;11.550;2022-08-21T07:41:57;95843.75;;;23.01;60.62
6218;BME280;3142;48.206;11.550;2022-08-21T07:44:23;95846.00;;;23.28;60.24
6218;BME280;3142;48.206;11.550;2022-08-21T07:46:49;95845.84;;;23.54;59.49
6218;BME280;3142;48.206;11.550;2022-08-21T07:49:16;95850.25;;;23.79;59.66
6218;BME280;3142;48.206;11.550;2022-08-21T07:51:42;95854.88;;;24.02;58.62
6218;BME280;3142;48.206;11.550;2022-08-21T07:54:09;95849.84;;;24.24;57.93
6218;BME280;3142;48.206;11.550;2022-08-21T07:56:37;95844.59;;;24.43;57.08
6218;BME280;3142;48.206;11.550;2022-08-21T07:59:03;95849.03;;;24.77;56.22
6218;BME280;3142;48.206;11.550;2022-08-21T08:01:29;95841.09;;;25.15;55.63
6218;BME280;3142;48.206;11.550;2022-08-21T08:03:56;95836.09;;;25.46;54.47
6218;BME280;3142;48.206;11.550;2022-08-21T08:06:22;95836.84;;;25.70;52.72
6218;BME280;3142;48.206;11.550;2022-08-21T08:08:49;95834.41;;;25.87;52.43
6218;BME280;3142;48.206;11.550;2022-08-21T08:11:15;95837.09;;;26.20;51.76
6218;BME280;3142;48.206;11.550;2022-08-21T08:13:45;95832.88;;;26.46;51.37
6218;BME280;3142;48.206;11.550;2022-08-21T08:16:12;95834.06;;;26.68;50.08
6218;BME280;3142;48.206;11.550;2022-08-21T08:18:38;95836.66;;;26.86;49.61
6218;BME280;3142;48.206;11.550;2022-08-21T08:21:05;95847.28;;;27.19;49.02
6218;BME280;3142;48.206;11.550;2022-08-21T08:23:32;95847.03;;;27.43;48.68
6218;BME280;3142;48.206;11.550;2022-08-21T08:25:59;95837.38;;;27.42;47.73
6218;BME280;3142;48.206;11.550;2022-08-21T08:28:27;95832.13;;;27.59;47.94
6218;BME280;3142;48.206;11.550;2022-08-21T08:30:55;95831.97;;;27.78;48.09
6218;BME280;3142;48.206;11.550;2022-08-21T08:33:22;95831.28;;;27.95;47.34
6218;BME280;3142;48.206;11.550;2022-08-21T08:35:50;95831.41;;;28.12;47.39
6218;BME280;3142;48.206;11.550;2022-08-21T08:38:19;95829.16;;;28.28;46.67
6218;BME280;3142;48.206;11.550;2022-08-21T08:40:53;95831.28;;;28.40;45.96
6218;BME280;3142;48.206;11.550;2022-08-21T08:43:21;95825.72;;;28.45;46.99
6218;BME280;3142;48.206;11.550;2022-08-21T08:45:50;95831.47;;;28.52;46.93
6218;BME280;3142;48.206;11.550;2022-08-21T08:48:31;95834.19;;;28.60;46.12
6218;BME280;3142;48.206;11.550;2022-08-21T08:51:04;95825.31;;;28.60;45.98
6218;BME280;3142;48.206;11.550;2022-08-21T08:53:37;95830.69;;;28.60;46.41
6218;BME280;3142;48.206;11.550;2022-08-21T08:56:10;95830.59;;;28.74;45.95
6218;BME280;3142;48.206;11.550;2022-08-21T08:58:39;95827.13;;;28.82;45.23
6218;BME280;3142;48.206;11.550;2022-08-21T09:01:12;95824.88;;;28.75;45.85
6218;BME280;3142;48.206;11.550;2022-08-21T09:03:41;95829.63;;;28.70;46.26
6218;BME280;3142;48.206;11.550;2022-08-21T09:06:12;95827.75;;;28.70;46.07
6218;BME280;3142;48.206;11.550;2022-08-21T09:08:47;95838.22;;;28.80;46.12
6218;BME280;3142;48.206;11.550;2022-08-21T09:11:22;95830.00;;;28.85;46.08
6218;BME280;3142;48.206;11.550;2022-08-21T09:14:01;95824.81;;;28.98;45.82
6218;BME280;3142;48.206;11.550;2022-08-21T09:16:41;95823.44;;;29.09;45.81
6218;BME280;3142;48.206;11.550;2022-08-21T09:19:24;95820.56;;;29.14;46.16
6218;BME280;3142;48.206;11.550;2022-08-21T09:22:02;95817.91;;;29.23;46.72
6218;BME280;3142;48.206;11.550;2022-08-21T09:24:32;95813.59;;;28.56;47.72
6218;BME280;3142;48.206;11.550;2022-08-21T09:27:04;95821.53;;;27.99;48.48
6218;BME280;3142;48.206;11.550;2022-08-21T09:29:41;95819.28;;;28.54;47.23
6218;BME280;3142;48.206;11.550;2022-08-21T09:32:13;95823.25;;;29.05;47.62
6218;BME280;3142;48.206;11.550;2022-08-21T09:34:54;95827.88;;;29.13;47.00
6218;BME280;3142;48.206;11.550;2022-08-21T09:37:21;95827.81;;;27.94;48.98
6218;BME280;3142;48.206;11.550;2022-08-21T09:39:48;95817.63;;;27.10;51.19
6218;BME280;3142;48.206;11.550;2022-08-21T09:42:23;95815.97;;;26.46;52.50
6218;BME280;3142;48.206;11.550;2022-08-21T09:45:05;95808.81;;;25.95;53.51
6218;BME280;3142;48.206;11.550;2022-08-21T09:47:32;95809.69;;;25.90;54.50
6218;BME280;3142;48.206;11.550;2022-08-21T09:50:09;95814.44;;;25.61;55.79
6218;BME280;3142;48.206;11.550;2022-08-21T09:52:43;95808.31;;;25.42;56.40
6218;BME280;3142;48.206;11.550;2022-08-21T09:55:15;95805.78;;;25.13;57.46
6218;BME280;3142;48.206;11.550;2022-08-21T09:58:03;95804.31;;;25.01;57.25
6218;BME280;3142;48.206;11.550;2022-08-21T10:00:31;95804.91;;;25.36;56.30
6218;BME280;3142;48.206;11.550;2022-08-21T10:03:11;95797.28;;;26.68;53.65
6218;BME280;3142;48.206;11.550;2022-08-21T10:05:49;95805.94;;;26.38;54.54
6218;BME280;3142;48.206;11.550;2022-08-21T10:08:17;95808.63;;;25.91;55.19
6218;BME280;3142;48.206;11.550;2022-08-21T10:10:44;95801.06;;;25.42;56.64
6218;BME280;3142;48.206;11.550;2022-08-21T10:13:13;95805.47;;;24.95;57.95
6218;BME280;3142;48.206;11.550;2022-08-21T10:15:47;95800.06;;;24.76;58.12
6218;BME280;3142;48.206;11.550;2022-08-21T10:18:22;95800.38;;;24.51;58.84
6218;BME280;3142;48.206;11.550;2022-08-21T10:20:59;95807.19;;;24.38;59.56
6218;BME280;3142;48.206;11.550;2022-08-21T10:23:41;95806.47;;;24.33;60.19
6218;BME280;3142;48.206;11.550;2022-08-21T10:26:15;95807.53;;;24.32;60.44
6218;BME280;3142;48.206;11.550;2022-08-21T10:28:58;95798.16;;;25.20;58.80
6218;BME280;3142;48.206;11.550;2022-08-21T10:31:33;95792.94;;;25.47;58.26
6218;BME280;3142;48.206;11.550;2022-08-21T10:34:16;95792.97;;;26.81;54.66
6218;BME280;3142;48.206;11.550;2022-08-21T10:37:07;95782.13;;;27.72;52.18
6218;BME280;3142;48.206;11.550;2022-08-21T10:39:44;95786.03;;;28.59;50.41
6218;BME280;3142;48.206;11.550;2022-08-21T10:42:29;95785.06;;;29.20;47.82
6218;BME280;3142;48.206;11.550;2022-08-21T10:45:08;95779.50;;;29.00;48.82
6218;BME280;3142;48.206;11.550;2022-08-21T10:47:42;95788.22;;;29.05;48.59
6218;BME280;3142;48.206;11.550;2022-08-21T10:50:17;95777.28;;;29.10;48.17
6218;BME280;3142;48.206;11.550;2022-08-21T10:52:56;95780.78;;;29.71;46.89
6218;BME280;3142;48.206;11.550;2022-08-21T10:55:31;95782.78;;;30.18;46.25
6218;BME280;3142;48.206;11.550;2022-08-21T10:58:02;95776.19;;;30.36;44.97
6218;BME280;3142;48.206;11.550;2022-08-21T11:00:35;95776.06;;;30.32;44.73
6218;BME280;3142;48.206;11.550;2022-08-21T11:03:12;95777.53;;;30.59;44.33
6218;BME280;3142;48.206;11.550;2022-08-21T11:05:42;95775.53;;;30.77;44.19
6218;BME280;3142;48.206;11.550;2022-08-21T11:08:17;95773.03;;;30.34;44.30
6218;BME280;3142;48.206;11.550;2022-08-21T11:10:48;95771.31;;;30.59;43.64
6218;BME280;3142;48.206;11.550;2022-08-21T11:13:21;95764.03;;;30.89;42.55
6218;BME280;3142;48.206;11.550;2022-08-21T11:15:56;95758.63;;;31.10;41.32
6218;BME280;3142;48.206;11.550;2022-08-21T11:18:29;95761.56;;;31.26;40.66
6218;BME280;3142;48.206;11.550;2022-08-21T11:21:03;95761.59;;;31.38;40.81
6218;BME280;3142;48.206;11.550;2022-08-21T11:23:38;95756.69;;;31.40;40.66
6218;BME280;3142;48.206;11.550;2022-08-21T11:26:10;95746.16;;;31.59;39.68
6218;BME280;3142;48.206;11.550;2022-08-21T11:28:45;95754.19;;;31.68;38.27
6218;BME280;3142;48.206;11.550;2022-08-21T11:31:24;95754.38;;;31.63;37.74
6218;BME280;3142;48.206;11.550;2022-08-21T11:34:08;95751.75;;;30.91;39.57
6218;BME280;3142;48.206;11.550;2022-08-21T11:36:42;95743.00;;;29.80;41.70
6218;BME280;3142;48.206;11.550;2022-08-21T11:39:21;95746.53;;;29.37;42.84
6218;BME280;3142;48.206;11.550;2022-08-21T11:41:54;95743.22;;;30.22;40.63
6218;BME280;3142;48.206;11.550;2022-08-21T11:44:34;95734.53;;;30.75;38.42
6218;BME280;3142;48.206;11.550;2022-08-21T11:47:13;95736.50;;;30.66;38.62
6218;BME280;3142;48.206;11.550;2022-08-21T11:49:49;95729.84;;;30.25;39.91
6218;BME280;3142;48.206;11.550;2022-08-21T11:52:23;95732.69;;;29.73;40.80
6218;BME280;3142;48.206;11.550;2022-08-21T11:54:58;95734.81;;;29.07;41.93
6218;BME280;3142;48.206;11.550;2022-08-21T11:57:32;95737.44;;;28.81;41.98
6218;BME280;3142;48.206;11.550;2022-08-21T12:00:05;95731.47;;;29.36;41.97
6218;BME280;3142;48.206;11.550;2022-08-21T12:02:36;95736.53;;;28.95;42.33
6218;BME280;3142;48.206;11.550;2022-08-21T12:05:06;95728.28;;;28.34;42.83
6218;BME280;3142;48.206;11.550;2022-08-21T12:07:36;95725.50;;;27.77;42.97
6218;BME280;3142;48.206;11.550;2022-08-21T12:10:07;95725.28;;;27.42;43.56
6218;BME280;3142;48.206;11.550;2022-08-21T12:12:36;95730.50;;;27.25;44.15
6218;BME280;3142;48.206;11.550;2022-08-21T12:15:23;95720.69;;;27.21;44.59
6218;BME280;3142;48.206;11.550;2022-08-21T12:17:54;95730.66;;;27.42;45.36
6218;BME280;3142;48.206;11.550;2022-08-21T12:20:43;95729.47;;;27.57;44.87
6218;BME280;3142;48.206;11.550;2022-08-21T12:23:24;95716.94;;;27.75;44.39
6218;BME280;3142;48.206;11.550;2022-08-21T12:26:23;95708.94;;;27.84;43.70
6218;BME280;3142;48.206;11.550;2022-08-21T12:28:50;95707.53;;;27.95;44.51
6218;BME280;3142;48.206;11.550;2022-08-21T12:31:19;95709.47;;;28.03;43.53
6218;BME280;3142;48.206;11.550;2022-08-21T12:33:52;95706.84;;;28.20;41.93
6218;BME280;3142;48.206;11.550;2022-08-21T12:36:21;95701.84;;;28.27;41.43
6218;BME280;3142;48.206;11.550;2022-08-21T12:38:52;95698.22;;;28.32;41.22
6218;BME280;3142;48.206;11.550;2022-08-21T12:41:26;95701.47;;;28.20;40.60
6218;BME280;3142;48.206;11.550;2022-08-21T12:43:58;95694.97;;;28.13;41.13
6218;BME280;3142;48.206;11.550;2022-08-21T12:46:34;95696.66;;;28.09;42.00
6218;BME280;3142;48.206;11.550;2022-08-21T12:49:06;95693.03;;;28.04;41.86
6218;BME280;3142;48.206;11.550;2022-08-21T12:51:38;95693.81;;;28.05;42.26
6218;BME280;3142;48.206;11.550;2022-08-21T12:54:09;95685.91;;;28.09;41.42
6218;BME280;3142;48.206;11.550;2022-08-21T12:56:37;95677.22;;;28.12;41.41
6218;BME280;3142;48.206;11.550;2022-08-21T12:59:06;95676.72;;;28.10;40.40
6218;BME280;3142;48.206;11.550;2022-08-21T13:01:35;95674.19;;;28.04;41.27
6218;BME280;3142;48.206;11.550;2022-08-21T13:04:06;95678.97;;;28.16;40.78
6218;BME280;3142;48.206;11.550;2022-08-21T13:06:38;95674.19;;;28.04;40.37
6218;BME280;3142;48.206;11.550;2022-08-21T13:09:07;95665.44;;;27.90;40.63
6218;BME280;3142;48.206;11.550;2022-08-21T13:11:37;95673.38;;;27.64;40.86
6218;BME280;3142;48.206;11.550;2022-08-21T13:14:06;95674.84;;;27.48;40.86
6218;BME280;3142;48.206;11.550;2022-08-21T13:16:39;95665.16;;;27.38;41.51
6218;BME280;3142;48.206;11.550;2022-08-21T13:19:07;95676.88;;;27.20;42.01
6218;BME280;3142;48.206;11.550;2022-08-21T13:21:34;95673.81;;;27.13;41.58
6218;BME280;3142;48.206;11.550;2022-08-21T13:24:16;95674.03;;;27.17;42.69